Airfield :
LOGIN :

Register | Disclaimer

   EN    FR    IT 

 










Legend :    VFR   Marginal VFR   IFR   Intensive IFR   Very Intensive IFR
Visi :
Ceiling :
>= 8 km
>= 3000ft
5 to 8 km
1000 to 3000 ft
1500m to 5 km
500 to 1000 ft
800 to 1500m
200 to 500 ft
< 800m
< 200 ft
Symbols :   Thunderstorms  Fog  Heavy snow  Heavy precipitations  Wind > 20 kt
SIGMETs :     Misc.  Thunderstorms  Icing  Turbulence  Mountain Waves  Volcanic Ashes







- Airport Elevation : 348 ft
- IATA code : LDV
- Download approach charts


LFRJ - Landivisiau

CURRENT METAR :
  • 181730Z AUTO 20008KT 9999 ///TCU 07/06 Q1009

EXPIRED METARs :
  • 181700Z AUTO 23008KT 9999 FEW014 SCT048 BKN054 08/07 Q1009 BECMG 16014KT
  • 181630Z AUTO 23012KT 9999 BKN010 BKN016 BKN021 08/08 Q1009 BECMG 16014KT BKN020
  • 181600Z AUTO 18016KT 9999 DZ BKN010/// BKN018/// BKN023/// 08/07 Q1008 TEMPO 16015G25KT 3000 RA BECMG BKN020
  • 181530Z AUTO 17013KT 5000 -DZ BR BKN009/// OVC013/// ///TCU 08/07 Q1009 TEMPO 16015G25KT BECMG BKN020
  • 181500Z AUTO 15011KT 9999 SCT011/// BKN024/// BKN031/// ///CB 07/07 Q1009 TEMPO 16015G25KT 3000 RA BKN007

TAF TAF LFRJ
Valid from the 18 at 15:00 until the 19 at 00:00 UTC


181400Z 1815/1824 16014KT 9999 BKN015
TEMPO 1815/1817 16015G25KT 3000 RA BKN007
BECMG 1817/1819 BKN020
TEMPO 1819/1824 4000 SHRA BKN015TCU
PROB30
TEMPO 1821/1824 3000 BR
No reported NOTAMs for that airfield.



MET'MAP, your aeronautical weather chart ! - Copyright ORBIFLY December 2007 - Disclaimer

ORBIFLY MET'MAP TEAM :

Programming & Development : Alexandra Zaïnal
Concept & Development : Baudouin d'Aumeries
Co-Development & Prog : Marc-Olivier Méhu
Technical & hardware support : Manuel Goepfert

Contact : metmap@orbifly.com




SOURCES & CREDITS :

   NOAA